CheckWX is a tool to help pilots better visualize weather data.  It is not intended as a substitute for an official pre-flight weather briefing.

01:21:50 UTC

LICT TAF
Vincenzo Florio Trapani-Birgi Airport
Trapani, Italy
TAF LICT 222300Z 2300/2309 VRB03KT 9999 FEW020

Aug-23@
00:00 UTC

Aug-23 @ 00:00 UTC

Aug-23@
09:00 UTC

Aug-23 @ 09:00 UTC

TAF LICT 222300Z 2300/2309 VRB03KT 9999 FEW020
Wind
  • Variable at 3 KTS
Cloud Levels
  • Few at 2,000' AGL